Time;durP1;ratioP1;P1;durP2;ratioP2;P2;SDS_P1;SDS_P2;PMS_P1;PMS_P2;Temp;Humidity;BMP_temperature;BMP_pressure;BME280_temperature;BME280_humidity;BME280_pressure;Samples;Min_cycle;Max_cycle;Signal;HPM_P1;HPM_P2
2021/10/21 00:00:41;;;;;;;;;;;;;;;;;;4274742;33;20035;-81
2021/10/21 00:03:07;;;;;;;;;;;;;;;;;;4274135;33;19983;-79
2021/10/21 00:08:25;;;;;;;;;;;;;;;;;;4286444;33;20367;-81
2021/10/21 00:10:56;;;;;;;;;;;;;;;;;;4274038;33;19971;-80
2021/10/21 00:13:25;;;;;;;;;;;;;;;;;;4289688;33;20315;-80
2021/10/21 00:15:50;;;;;;;;;;;;;;;;;;4301415;33;20327;-81
2021/10/21 00:23:55;;;;;;;;;;;;;;;;;;4286355;33;20259;-81
2021/10/21 00:26:53;;;;;;;;;;;;;;;;;;4271724;33;19980;-81
2021/10/21 00:29:15;;;;;;;;;;;;;;;;;;4270416;33;19985;-81
2021/10/21 00:37:12;;;;;;;;;;;;;;;;;;4272067;33;19997;-82
2021/10/21 00:45:11;;;;;;;;;;;;;;;;;;4229693;34;19977;-81
2021/10/21 00:47:51;;;;;;;;;;;;;;;;;;4229168;34;19962;-81
2021/10/21 00:50:37;;;;;;;;;;;;;;;;;;;;;
2021/10/21 00:53:05;;;;;;;;;;;;;;;;;;4271658;33;19941;-81
2021/10/21 00:55:31;;;;;;;;;;;;;;;;;;4271170;33;19951;-81
2021/10/21 00:58:06;;;;;;;;;;;;;;;;;;4273812;33;19968;-80
2021/10/21 01:00:41;;;;;;;;;;;;;;;;;;;;;
2021/10/21 01:08:52;;;;;;;;;;;;;;;;;;4273454;33;19940;-81
2021/10/21 01:22:33;;;;;;;;;;;;;;;;;;;;;
2021/10/21 01:25:21;;;;;;;;;;;;;;;;;;;;;
2021/10/21 01:27:51;;;;;;;;;;;;;;;;;;4271827;33;19945;-81
2021/10/21 01:30:22;;;;;;;;;;;;;;;;;;4259564;33;19945;-81
2021/10/21 01:32:47;;;;;;;;;;;;;;;;;;4259214;33;19971;-80
2021/10/21 01:35:12;;;;;;;;;;;;;;;;;;4270715;33;19953;-80
2021/10/21 01:43:16;;;;;;;;;;;;;;;;;;;;;
2021/10/21 01:48:34;;;;;;;;;;;;;;;;;;4290527;33;19951;-79
2021/10/21 01:51:26;;;;;;;;;;;;;;;;;;;;;
2021/10/21 01:53:54;;;;;;;;;;;;;;;;;;4302297;33;19976;-78
2021/10/21 01:56:19;;;;;;;;;;;;;;;;;;4288466;33;19951;-79
2021/10/21 02:02:01;;;;;;;;;;;;;;;;;;;;;
2021/10/21 02:10:08;;;;;;;;;;;;;;;;;;4285123;33;19937;-82
2021/10/21 02:12:43;;;;;;;;;;;;;;;;;;;;;
2021/10/21 02:15:11;;;;;;;;;;;;;;;;;;4246922;33;20368;-82
2021/10/21 02:21:13;;;;;;;;;;;;;;;;;;;;;
2021/10/21 02:31:46;;;;;;;;;;;;;;;;;;4259399;33;19940;-81
2021/10/21 02:48:13;;;;;;;;;;;;;;;;;;4162193;34;19945;-81
2021/10/21 02:58:52;;;;;;;;;;;;;;;;;;4157868;34;20430;-81
2021/10/21 03:31:37;;;;;;;;;;;;;;;;;;4272117;33;20037;-81
2021/10/21 03:34:11;;;;;;;;;;;;;;;;;;4272562;33;19972;-82
2021/10/21 03:36:49;;;;;;;;;;;;;;;;;;;;;
2021/10/21 03:39:16;;;;;;;;;;;;;;;;;;4272679;33;19938;-82
2021/10/21 03:47:28;;;;;;;;;;;;;;;;;;;;;
2021/10/21 03:50:25;;;;;;;;;;;;;;;;;;;;;
2021/10/21 03:52:56;;;;;;;;;;;;;;;;;;4257961;33;19949;-81
2021/10/21 03:58:05;;;;;;;;;;;;;;;;;;4258001;33;19937;-78
2021/10/21 04:00:44;;;;;;;;;;;;;;;;;;;;;
2021/10/21 04:14:27;;;;;;;;;;;;;;;;;;4229683;34;19948;-81
2021/10/21 04:30:34;;;;;;;;;;;;;;;;;;4243666;33;20397;-82
2021/10/21 04:33:06;;;;;;;;;;;;;;;;;;4230296;33;19998;-81
2021/10/21 04:38:31;;;;;;;;;;;;;;;;;;;;;
2021/10/21 04:41:00;;;;;;;;;;;;;;;;;;4243700;33;19964;-78
2021/10/21 04:43:26;;;;;;;;;;;;;;;;;;4250125;33;20013;-78
2021/10/21 04:46:12;;;;;;;;;;;;;;;;;;4257262;33;19985;-78
2021/10/21 04:48:44;;;;;;;;;;;;;;;;;;4257657;33;19954;-78
2021/10/21 04:51:10;;;;;;;;;;;;;;;;;;4257379;33;20276;-77
2021/10/21 04:53:37;;;;;;;;;;;;;;;;;;4257310;33;19950;-78
2021/10/21 04:56:15;;;;;;;;;;;;;;;;;;;;;
2021/10/21 05:01:45;;;;;;;;;;;;;;;;;;;;;
2021/10/21 05:09:15;;;;;;;;;;;;;;;;;;4243105;33;19944;-79
2021/10/21 05:17:14;;;;;;;;;;;;;;;;;;4215260;34;20358;-78
2021/10/21 05:19:49;;;;;;;;;;;;;;;;;;4214869;34;19950;-78
2021/10/21 05:24:58;;;;;;;;;;;;;;;;;;4204395;34;19953;-78
2021/10/21 05:27:33;;;;;;;;;;;;;;;;;;4229093;34;19958;-79
2021/10/21 05:30:16;;;;;;;;;;;;;;;;;;4229221;34;19960;-79
2021/10/21 05:32:42;;;;;;;;;;;;;;;;;;4228120;33;19946;-79
2021/10/21 05:35:07;;;;;;;;;;;;;;;;;;4232884;33;20013;-77
2021/10/21 05:37:45;;;;;;;;;;;;;;;;;;;;;
2021/10/21 05:48:53;;;;;;;;;;;;;;;;;;;;;
2021/10/21 05:51:27;;;;;;;;;;;;;;;;;;4230087;33;19943;-78
2021/10/21 05:54:20;;;;;;;;;;;;;;;;;;;;;
2021/10/21 05:56:59;;;;;;;;;;;;;;;;;;4240646;33;19954;-77
2021/10/21 06:02:20;;;;;;;;;;;;;;;;;;4232847;33;19953;-77
2021/10/21 06:08:01;;;;;;;;;;;;;;;;;;;;;
2021/10/21 06:10:32;;;;;;;;;;;;;;;;;;4259607;33;19996;-76
2021/10/21 06:12:59;;;;;;;;;;;;;;;;;;4259611;33;19942;-77
2021/10/21 06:15:51;;;;;;;;;;;;;;;;;;;;;
2021/10/21 06:23:44;;;;;;;;;;;;;;;;;;4259979;33;19953;-78
2021/10/21 06:31:41;;;;;;;;;;;;;;;;;;4259366;33;19940;-78
2021/10/21 06:36:55;;;;;;;;;;;;;;;;;;4245048;33;20309;-78
2021/10/21 06:39:21;;;;;;;;;;;;;;;;;;4271813;33;19952;-79
2021/10/21 06:42:04;;;;;;;;;;;;;;;;;;4276074;33;19983;-80
2021/10/21 06:47:15;;;;;;;;;;;;;;;;;;4295266;33;19937;-79
2021/10/21 06:49:59;;;;;;;;;;;;;;;;;;;;;
2021/10/21 06:55:14;;;;;;;;;;;;;;;;;;4303693;33;19947;-77
2021/10/21 06:57:42;;;;;;;;;;;;;;;;;;4280738;33;19960;-76
2021/10/21 07:00:15;;;;;;;;;;;;;;;;;;4275582;33;20050;-77
2021/10/21 07:02:49;;;;;;;;;;;;;;;;;;4275445;33;19960;-77
2021/10/21 07:05:25;;;;;;;;;;;;;;;;;;4288702;33;19941;-77
2021/10/21 07:07:50;;;;;;;;;;;;;;;;;;4262472;33;19985;-77
2021/10/21 07:10:22;;;;;;;;;;;;;;;;;;4261827;33;19953;-76
2021/10/21 07:13:02;;;;;;;;;;;;;;;;;;4270584;33;19955;-78
2021/10/21 07:16:11;;;;;;;;;;;;;;;;;;;;;
2021/10/21 07:18:32;;;;;;;;;;;;;;;;;;4283781;33;19945;-79
2021/10/21 07:24:01;;;;;;;;;;;;;;;;;;4258613;33;19945;-78
2021/10/21 07:26:52;;;;;;;;;;;;;;;;;;4271765;33;19953;-77
2021/10/21 07:40:49;;;;;;;;;;;;;;;;;;4257152;33;20394;-82
2021/10/21 07:43:23;;;;;;;;;;;;;;;;;;4258447;33;19988;-79
2021/10/21 07:46:05;;;;;;;;;;;;;;;;;;4287649;33;20362;-78
2021/10/21 07:48:33;;;;;;;;;;;;;;;;;;4280610;33;19955;-79
2021/10/21 07:50:59;;;;;;;;;;;;;;;;;;4275945;33;19963;-79
2021/10/21 07:53:27;;;;;;;;;;;;;;;;;;4261315;33;19966;-79
2021/10/21 08:01:23;;;;;;;;;;;;;;;;;;4267732;33;20008;-79
2021/10/21 08:09:28;;;;;;;;;;;;;;;;;;4273948;33;19952;-80
2021/10/21 08:12:02;;;;;;;;;;;;;;;;;;4273339;33;20324;-79
2021/10/21 08:17:20;;;;;;;;;;;;;;;;;;4273712;33;20280;-80
2021/10/21 08:19:48;;;;;;;;;;;;;;;;;;4273944;33;19953;-79
2021/10/21 08:22:15;;;;;;;;;;;;;;;;;;4272653;33;20332;-81
2021/10/21 08:24:54;;;;;;;;;;;;;;;;;;4272525;33;19968;-79
2021/10/21 08:27:21;;;;;;;;;;;;;;;;;;4274930;33;19949;-80
2021/10/21 08:29:46;;;;;;;;;;;;;;;;;;4272478;33;20344;-79
2021/10/21 08:35:00;;;;;;;;;;;;;;;;;;4271519;33;19945;-78
2021/10/21 08:37:27;;;;;;;;;;;;;;;;;;4298562;33;20354;-78
2021/10/21 08:39:52;;;;;;;;;;;;;;;;;;4286234;33;19960;-80
2021/10/21 08:42:26;;;;;;;;;;;;;;;;;;4288990;33;19936;-80
2021/10/21 08:45:01;;;;;;;;;;;;;;;;;;4287579;33;20252;-80
2021/10/21 08:47:26;;;;;;;;;;;;;;;;;;4289441;33;19967;-79
2021/10/21 08:49:55;;;;;;;;;;;;;;;;;;4288548;33;20380;-79
2021/10/21 08:55:13;;;;;;;;;;;;;;;;;;4271373;33;19960;-78
2021/10/21 08:57:42;;;;;;;;;;;;;;;;;;4285872;33;20350;-76
2021/10/21 09:10:12;;;;;;;;;;;;;;;;;;;;;
2021/10/21 09:12:38;;;;;;;;;;;;;;;;;;4418791;32;19961;-75
2021/10/21 09:15:03;;;;;;;;;;;;;;;;;;4434103;32;19956;-75
2021/10/21 09:17:29;;;;;;;;;;;;;;;;;;4433941;32;20003;-73
2021/10/21 09:19:57;;;;;;;;;;;;;;;;;;4433350;32;20361;-75
2021/10/21 09:22:22;;;;;;;;;;;;;;;;;;4433718;32;19949;-76
2021/10/21 09:24:50;;;;;;;;;;;;;;;;;;4434212;32;20029;-75
2021/10/21 09:27:18;;;;;;;;;;;;;;;;;;4433506;32;19963;-74
2021/10/21 09:29:43;;;;;;;;;;;;;;;;;;4419923;32;19942;-74
2021/10/21 09:32:14;;;;;;;;;;;;;;;;;;4434103;32;20345;-74
2021/10/21 09:34:40;;;;;;;;;;;;;;;;;;4433462;32;20003;-74
2021/10/21 09:40:03;;;;;;;;;;;;;;;;;;4407157;32;19964;-74
2021/10/21 09:45:23;;;;;;;;;;;;;;;;;;4423044;32;19962;-73
2021/10/21 09:53:34;;;;;;;;;;;;;;;;;;4426350;32;19942;-74
2021/10/21 09:56:02;;;;;;;;;;;;;;;;;;4433446;32;19959;-75
2021/10/21 09:58:27;;;;;;;;;;;;;;;;;;4431859;32;19961;-74
2021/10/21 10:00:52;;;;;;;;;;;;;;;;;;4432633;32;19945;-74
2021/10/21 10:03:21;;;;;;;;;;;;;;;;;;4433376;32;19978;-74
2021/10/21 10:05:46;;;;;;;;;;;;;;;;;;4433281;32;20044;-74
2021/10/21 10:08:12;;;;;;;;;;;;;;;;;;4433117;32;19946;-71
2021/10/21 10:10:37;;;;;;;;;;;;;;;;;;4432592;32;19946;-73
2021/10/21 10:13:03;;;;;;;;;;;;;;;;;;4424157;32;19980;-73
2021/10/21 10:15:28;;;;;;;;;;;;;;;;;;4408644;32;19975;-73
2021/10/21 10:18:02;;;;;;;;;;;;;;;;;;4423366;32;19991;-72
2021/10/21 10:20:27;;;;;;;;;;;;;;;;;;4408920;32;19987;-75
2021/10/21 10:22:55;;;;;;;;;;;;;;;;;;4422760;32;20447;-73
2021/10/21 10:25:20;;;;;;;;;;;;;;;;;;4422407;32;19954;-73
2021/10/21 10:27:45;;;;;;;;;;;;;;;;;;4408698;32;20030;-73
2021/10/21 10:30:19;;;;;;;;;;;;;;;;;;4422004;32;20374;-72
2021/10/21 10:32:47;;;;;;;;;;;;;;;;;;4421800;32;19967;-76
